createdAt,value
2022-10-26T11:09:42.108Z,1.50
2022-10-26T11:12:16.207Z,1.00
2022-10-26T11:14:49.768Z,0.80
2022-10-26T11:17:22.941Z,1.43
2022-10-26T11:19:56.954Z,1.20
2022-10-26T11:22:29.251Z,1.10
2022-10-26T11:25:09.096Z,1.10
2022-10-26T11:27:45.967Z,1.17
2022-10-26T11:30:19.921Z,1.33
2022-10-26T11:32:53.357Z,0.87
2022-10-26T11:35:27.451Z,1.60
2022-10-26T11:38:02.900Z,1.17
2022-10-26T11:40:40.291Z,1.20
2022-10-26T11:43:16.137Z,1.10
2022-10-26T11:45:50.404Z,0.90
2022-10-26T11:48:26.463Z,1.30
2022-10-26T11:50:57.885Z,1.00
2022-10-26T11:53:29.594Z,1.00
2022-10-26T11:59:18.210Z,1.50
2022-10-26T12:01:52.453Z,2.07
2022-10-26T12:04:27.668Z,2.20
2022-10-26T12:06:57.537Z,2.00
2022-10-26T12:09:33.425Z,1.90
2022-10-26T12:12:13.391Z,1.40
2022-10-26T12:14:46.157Z,2.13
2022-10-26T12:17:20.460Z,1.50
2022-10-26T12:19:54.736Z,1.90
2022-10-26T12:22:31.366Z,1.80
2022-10-26T12:25:20.960Z,1.80
2022-10-26T12:27:56.267Z,1.87
2022-10-26T12:30:28.716Z,1.50
2022-10-26T12:33:03.377Z,1.73
2022-10-26T12:35:43.176Z,1.47
2022-10-26T12:38:50.041Z,1.63
2022-10-26T12:41:27.216Z,2.27
2022-10-26T12:44:25.832Z,1.30
2022-10-26T12:46:54.106Z,2.30
2022-10-26T12:49:58.497Z,2.47
2022-10-26T12:52:49.311Z,1.90
2022-10-26T12:56:05.493Z,2.10
2022-10-26T12:59:01.086Z,2.53
2022-10-26T13:02:11.720Z,1.67
2022-10-26T13:05:18.407Z,1.47
2022-10-26T13:07:47.644Z,1.47
2022-10-26T13:10:23.003Z,1.10
2022-10-26T13:12:54.817Z,2.13
2022-10-26T13:15:26.316Z,1.33
2022-10-26T13:18:00.183Z,2.27
2022-10-26T13:20:29.514Z,1.40
2022-10-26T13:22:57.806Z,1.40
2022-10-26T13:25:28.342Z,1.60
2022-10-26T13:28:02.567Z,1.30
2022-10-26T13:30:44.005Z,1.57
2022-10-26T13:33:36.341Z,1.70
2022-10-26T13:36:16.325Z,1.37
2022-10-26T13:38:47.482Z,1.70
2022-10-26T13:41:28.588Z,1.10
2022-10-26T13:43:57.163Z,1.53
2022-10-26T13:46:29.111Z,1.53
2022-10-26T13:49:08.752Z,1.63
2022-10-26T13:51:42.835Z,1.50
2022-10-26T13:54:23.077Z,1.47
2022-10-26T13:57:03.410Z,1.60
2022-10-26T13:59:35.494Z,1.80
2022-10-26T14:02:27.571Z,1.73
2022-10-26T14:05:03.361Z,1.67
2022-10-26T14:07:38.034Z,1.30
2022-10-26T14:10:07.210Z,1.40
2022-10-26T14:12:35.922Z,1.90
2022-10-26T14:15:09.625Z,2.00
2022-10-26T14:17:37.865Z,1.70
2022-10-26T14:20:08.600Z,1.60
2022-10-26T14:22:41.407Z,2.07
2022-10-26T14:25:30.957Z,2.40
2022-10-26T14:28:22.815Z,1.33
2022-10-26T14:30:51.729Z,1.47
2022-10-26T14:33:39.919Z,1.87
2022-10-26T14:44:06.472Z,1.70
2022-10-26T14:46:36.537Z,2.10
2022-10-26T14:49:05.304Z,1.57
2022-10-26T14:51:37.450Z,2.10
2022-10-26T14:54:05.883Z,1.77
2022-10-26T14:56:41.716Z,2.33
2022-10-26T14:59:19.544Z,1.63
2022-10-26T15:01:56.328Z,1.87
2022-10-26T15:04:33.124Z,2.33
2022-10-26T15:07:16.893Z,2.47
2022-10-26T15:09:45.980Z,2.20
2022-10-26T15:12:22.006Z,1.90
2022-10-26T15:14:51.345Z,2.13
2022-10-26T15:17:24.629Z,2.37
2022-10-26T15:19:53.685Z,2.30
2022-10-26T15:22:31.025Z,1.90
2022-10-26T15:25:02.739Z,1.90
2022-10-26T15:27:31.212Z,1.60
2022-10-26T15:30:19.706Z,2.17
2022-10-26T15:32:47.891Z,2.30
2022-10-26T15:35:31.512Z,1.90
2022-10-26T15:38:01.826Z,2.33
2022-10-26T15:40:30.717Z,1.90
2022-10-26T15:43:01.436Z,2.27
2022-10-26T15:45:32.017Z,1.93
2022-10-26T15:48:14.501Z,2.30
2022-10-26T15:50:42.487Z,2.00
2022-10-26T15:53:20.255Z,2.43
2022-10-26T15:55:48.582Z,2.60
2022-10-26T15:58:17.116Z,2.33
2022-10-26T16:00:45.252Z,3.80
2022-10-26T16:03:22.997Z,2.43
2022-10-26T16:05:57.553Z,2.33
2022-10-26T16:08:28.778Z,2.27
2022-10-26T16:10:56.747Z,2.60
2022-10-26T16:13:24.755Z,2.93
2022-10-26T16:15:52.622Z,2.80
2022-10-26T16:18:20.930Z,2.90
2022-10-26T16:20:49.145Z,2.60
2022-10-26T16:23:17.200Z,3.97
2022-10-26T16:25:47.851Z,2.90
2022-10-26T16:28:17.596Z,2.80
2022-10-26T16:30:45.671Z,3.83
2022-10-26T16:33:13.922Z,2.53
2022-10-26T16:35:41.890Z,2.30
2022-10-26T16:38:09.958Z,3.77
2022-10-26T16:40:37.835Z,3.37
2022-10-26T16:43:07.132Z,2.80
2022-10-26T16:45:34.978Z,4.03
2022-10-26T16:48:06.014Z,3.97
2022-10-26T16:50:36.359Z,3.80
2022-10-26T16:53:04.635Z,3.80
2022-10-26T16:55:32.847Z,3.20
2022-10-26T16:58:00.890Z,2.93
2022-10-26T17:00:31.374Z,2.47
2022-10-26T17:03:00.866Z,2.60
2022-10-26T17:05:28.746Z,2.80
2022-10-26T17:07:56.989Z,4.93
2022-10-26T17:10:25.907Z,4.10
2022-10-26T17:12:53.981Z,4.73
2022-10-26T17:15:23.269Z,3.83
2022-10-26T17:17:54.714Z,3.80
2022-10-26T17:20:22.812Z,3.23
2022-10-26T17:22:51.196Z,5.00
2022-10-26T17:25:19.389Z,5.03
2022-10-26T17:27:47.630Z,3.70
2022-10-26T17:30:15.733Z,2.93
2022-10-26T17:32:43.845Z,3.97
2022-10-26T17:35:13.503Z,4.77
2022-10-26T17:37:41.406Z,4.03
2022-10-26T17:40:10.201Z,3.57
2022-10-26T17:42:38.118Z,3.40
2022-10-26T17:45:06.801Z,3.20
2022-10-26T17:47:34.697Z,3.20
2022-10-26T17:50:04.331Z,4.20
2022-10-26T17:52:33.621Z,3.30
2022-10-26T17:55:02.713Z,3.30
2022-10-26T17:57:31.371Z,3.83
2022-10-26T17:59:59.246Z,3.43
2022-10-26T18:02:27.733Z,3.83
2022-10-26T18:04:55.731Z,3.90
2022-10-26T18:07:23.608Z,4.50
2022-10-26T18:09:53.073Z,4.17
2022-10-26T18:12:20.933Z,6.50
2022-10-26T18:14:48.837Z,3.87
2022-10-26T18:17:16.843Z,3.30
2022-10-26T18:19:44.803Z,4.10
2022-10-26T18:22:13.053Z,3.50
2022-10-26T18:24:41.074Z,4.30
2022-10-26T18:27:10.313Z,4.07
2022-10-26T18:29:39.785Z,7.13
2022-10-26T18:32:07.873Z,4.83
2022-10-26T18:34:35.978Z,4.93
2022-10-26T18:37:03.857Z,5.50
2022-10-26T18:39:31.872Z,6.27
2022-10-26T18:41:59.792Z,7.70
2022-10-26T18:44:29.045Z,6.33
2022-10-26T18:46:57.006Z,5.10
2022-10-26T18:49:25.920Z,5.00
2022-10-26T18:51:53.795Z,6.00
2022-10-26T18:54:21.706Z,6.63
2022-10-26T18:56:49.673Z,4.97
2022-10-26T18:59:17.832Z,5.70
2022-10-26T19:01:47.395Z,5.90
2022-10-26T19:04:15.960Z,5.23
2022-10-26T19:06:47.365Z,6.23
2022-10-26T19:09:16.946Z,6.17
2022-10-26T19:11:45.133Z,5.30
2022-10-26T19:14:13.954Z,5.20
2022-10-26T19:16:47.200Z,5.10
2022-10-26T19:19:18.021Z,5.33
2022-10-26T19:21:47.107Z,6.67
2022-10-26T19:24:16.355Z,6.87
2022-10-26T19:26:45.056Z,5.60
2022-10-26T19:29:16.070Z,5.50
2022-10-26T19:31:45.138Z,6.70
2022-10-26T19:34:15.010Z,7.70
2022-10-26T19:36:46.269Z,6.37
2022-10-26T19:39:15.352Z,12.13
2022-10-26T19:41:44.104Z,11.00
2022-10-26T19:44:14.323Z,8.40
2022-10-26T19:46:43.390Z,8.77
2022-10-26T19:49:12.594Z,8.37
2022-10-26T19:51:40.774Z,7.67
2022-10-26T19:54:10.206Z,7.23
2022-10-26T19:56:39.281Z,9.87
2022-10-26T19:59:08.073Z,8.60
2022-10-26T20:01:36.294Z,6.10
2022-10-26T20:04:06.081Z,6.13
2022-10-26T20:06:34.701Z,7.93
2022-10-26T20:09:02.967Z,7.00
2022-10-26T20:11:35.125Z,7.47
2022-10-26T20:14:03.080Z,8.53
2022-10-26T20:16:30.979Z,7.27
2022-10-26T20:19:01.753Z,6.63
2022-10-26T20:21:29.736Z,6.20
2022-10-26T20:23:57.864Z,5.83
2022-10-26T20:26:28.260Z,5.30
2022-10-26T20:28:58.007Z,6.00
2022-10-26T20:31:26.251Z,4.97
2022-10-26T20:33:54.341Z,5.60
2022-10-26T20:36:23.021Z,5.00
2022-10-26T20:38:51.489Z,5.90
2022-10-26T20:41:20.040Z,5.60
2022-10-26T20:43:49.467Z,5.60
2022-10-26T20:46:24.056Z,5.00
2022-10-26T20:48:53.387Z,4.00
2022-10-26T20:51:26.399Z,4.70
2022-10-26T20:54:06.260Z,4.90
2022-10-26T20:56:35.428Z,4.47
2022-10-26T20:59:04.843Z,4.27
2022-10-26T21:01:38.298Z,5.40
2022-10-26T21:04:06.333Z,4.97
2022-10-26T21:06:40.300Z,3.73
2022-10-26T21:09:09.346Z,4.60
2022-10-26T21:11:37.602Z,3.90
2022-10-26T21:14:06.482Z,3.53
2022-10-26T21:16:35.732Z,4.40
2022-10-26T21:19:05.150Z,3.53
2022-10-26T21:21:33.277Z,3.73
2022-10-26T21:24:01.209Z,3.93
2022-10-26T21:26:29.325Z,3.13
2022-10-26T21:28:57.383Z,4.30
2022-10-26T21:31:25.314Z,4.60
2022-10-26T21:33:55.188Z,3.70
2022-10-26T21:36:23.659Z,4.07
2022-10-26T21:38:51.836Z,3.83
2022-10-26T21:41:21.304Z,3.70
2022-10-26T21:43:59.144Z,4.17
2022-10-26T21:46:36.870Z,4.17
2022-10-26T21:49:06.189Z,3.60
2022-10-26T21:51:35.737Z,4.53
2022-10-26T21:54:03.893Z,4.50
2022-10-26T21:56:31.976Z,3.80
2022-10-26T21:59:01.410Z,4.57
2022-10-26T22:01:29.617Z,3.73
2022-10-26T22:03:57.798Z,4.17
2022-10-26T22:06:27.266Z,4.83
2022-10-26T22:08:55.466Z,4.10
2022-10-26T22:11:25.482Z,3.97
2022-10-26T22:13:54.087Z,4.00
2022-10-26T22:16:23.895Z,4.37
2022-10-26T22:18:53.816Z,4.10
2022-10-26T22:21:26.193Z,4.20
2022-10-26T22:23:56.104Z,4.50
2022-10-26T22:26:25.368Z,4.40
2022-10-26T22:28:54.941Z,4.03
2022-10-26T22:31:24.828Z,4.80
2022-10-26T22:33:53.676Z,3.70
2022-10-26T22:36:22.111Z,3.93
2022-10-26T22:38:51.067Z,4.57
2022-10-26T22:41:21.828Z,5.03
2022-10-26T22:43:51.822Z,4.30
2022-10-26T22:46:22.027Z,4.17
2022-10-26T22:48:55.469Z,2.90
2022-10-26T22:51:24.690Z,3.30
2022-10-26T22:53:53.928Z,3.47
2022-10-26T22:56:24.349Z,2.97
2022-10-26T22:58:52.975Z,3.27
2022-10-26T23:01:23.647Z,2.60
2022-10-26T23:03:53.073Z,2.30
2022-10-26T23:06:21.871Z,2.70
2022-10-26T23:08:49.842Z,3.50
2022-10-26T23:11:20.309Z,2.73
2022-10-26T23:13:52.849Z,3.13
2022-10-26T23:16:21.025Z,2.57
2022-10-26T23:18:49.777Z,2.73
2022-10-26T23:21:18.515Z,3.30
2022-10-26T23:23:46.755Z,3.20
2022-10-26T23:26:16.729Z,3.15
2022-10-26T23:28:45.507Z,3.23
2022-10-26T23:31:17.396Z,3.17
2022-10-26T23:33:45.792Z,2.67
2022-10-26T23:36:14.159Z,2.73
2022-10-26T23:38:42.074Z,2.87
2022-10-26T23:41:12.809Z,3.13
